createdAt,value
2022-08-06T00:01:25.191Z,16.28
2022-08-06T00:03:51.941Z,16.27
2022-08-06T00:06:18.326Z,16.17
2022-08-06T00:08:47.343Z,16.14
2022-08-06T00:11:14.365Z,16.15
2022-08-06T00:13:42.018Z,16.11
2022-08-06T00:16:36.415Z,16.09
2022-08-06T00:18:56.296Z,16.05
2022-08-06T00:21:41.007Z,15.92
2022-08-06T00:24:12.694Z,15.91
2022-08-06T00:27:05.426Z,15.85
2022-08-06T00:29:44.142Z,15.84
2022-08-06T00:32:14.313Z,15.81
2022-08-06T00:34:43.340Z,15.80
2022-08-06T00:37:18.967Z,15.74
2022-08-06T00:39:45.893Z,15.73
2022-08-06T00:42:13.461Z,15.64
2022-08-06T00:44:43.785Z,15.54
2022-08-06T00:47:23.230Z,15.53
2022-08-06T00:50:02.323Z,15.50
2022-08-06T00:52:29.200Z,15.45
2022-08-06T00:54:55.635Z,15.42
2022-08-06T00:57:23.547Z,15.44
2022-08-06T00:59:53.649Z,15.35
2022-08-06T01:02:20.258Z,15.32
2022-08-06T01:04:50.587Z,15.26
2022-08-06T01:07:17.344Z,15.27
2022-08-06T01:09:58.053Z,15.30
2022-08-06T01:12:31.936Z,15.29
2022-08-06T01:15:02.851Z,15.19
2022-08-06T01:17:38.777Z,15.12
2022-08-06T01:21:57.611Z,15.14
2022-08-06T01:23:44.803Z,15.09
2022-08-06T01:26:32.782Z,15.07
2022-08-06T01:29:05.541Z,15.04
2022-08-06T01:31:52.906Z,15.00
2022-08-06T01:34:35.513Z,14.96
2022-08-06T01:37:15.967Z,14.90
2022-08-06T01:40:01.599Z,14.86
2022-08-06T01:42:35.005Z,14.81
2022-08-06T01:45:06.027Z,14.76
2022-08-06T01:47:53.971Z,14.66
2022-08-06T01:50:28.161Z,14.76
2022-08-06T01:52:59.948Z,14.75
2022-08-06T01:55:56.360Z,14.70
2022-08-06T01:58:29.407Z,14.69
2022-08-06T02:01:01.257Z,14.62
2022-08-06T02:03:50.333Z,14.57
2022-08-06T02:06:32.718Z,14.41
2022-08-06T02:09:22.868Z,14.37
2022-08-06T02:12:17.271Z,14.41
2022-08-06T02:14:52.526Z,14.40
2022-08-06T02:17:53.809Z,14.37
2022-08-06T02:20:11.738Z,14.32
2022-08-06T02:22:42.279Z,14.25
2022-08-06T02:25:15.134Z,14.28
2022-08-06T02:27:53.612Z,14.31
2022-08-06T02:30:34.915Z,14.24
2022-08-06T02:33:05.322Z,14.22
2022-08-06T02:35:37.417Z,14.16
2022-08-06T02:38:10.719Z,14.11
2022-08-06T02:40:54.061Z,14.07
2022-08-06T02:43:28.771Z,14.06
2022-08-06T02:46:11.257Z,14.07
2022-08-06T02:48:50.433Z,14.02
2022-08-06T02:51:43.722Z,14.00
2022-08-06T02:54:13.088Z,13.98
2022-08-06T02:56:45.375Z,13.85
2022-08-06T02:59:16.321Z,13.78
2022-08-06T03:01:50.892Z,13.75
2022-08-06T03:04:20.118Z,13.74
2022-08-06T03:07:03.535Z,13.69
2022-08-06T03:09:34.181Z,13.64
2022-08-06T03:12:09.592Z,13.65
2022-08-06T03:15:06.907Z,13.62
2022-08-06T03:17:41.575Z,13.59
2022-08-06T03:20:17.282Z,13.57
2022-08-06T03:22:47.752Z,13.61
2022-08-06T03:25:16.787Z,13.58
2022-08-06T03:27:45.577Z,13.57
2022-08-06T03:30:30.446Z,13.54
2022-08-06T03:33:07.390Z,13.47
2022-08-06T03:35:51.136Z,13.26
2022-08-06T03:38:19.720Z,13.25
2022-08-06T03:40:49.614Z,13.25
2022-08-06T03:43:27.915Z,13.24
2022-08-06T03:46:01.025Z,13.23
2022-08-06T03:48:35.783Z,13.19
2022-08-06T03:51:11.529Z,13.16
2022-08-06T03:53:42.369Z,13.13
2022-08-06T03:56:17.522Z,13.14
2022-08-06T03:58:45.491Z,13.11
2022-08-06T04:01:20.117Z,13.11
2022-08-06T04:03:49.712Z,13.07
2022-08-06T04:06:20.392Z,13.06
2022-08-06T04:08:49.044Z,13.03
2022-08-06T04:12:13.283Z,13.02
2022-08-06T04:14:08.423Z,13.03
2022-08-06T04:16:37.294Z,13.03
2022-08-06T04:19:15.587Z,13.10
2022-08-06T04:22:59.926Z,12.98
2022-08-06T04:24:30.580Z,13.00
2022-08-06T04:27:05.384Z,12.98
2022-08-06T04:29:56.270Z,13.01
2022-08-06T04:32:29.287Z,12.97
2022-08-06T04:36:07.974Z,12.89
2022-08-06T04:37:48.084Z,12.90
2022-08-06T04:40:20.136Z,12.98
2022-08-06T04:43:00.994Z,12.97
2022-08-06T04:46:15.939Z,13.00
2022-08-06T04:48:16.868Z,13.03
2022-08-06T04:50:47.701Z,13.04
2022-08-06T04:53:30.142Z,13.05
2022-08-06T04:56:04.331Z,13.05
2022-08-06T04:58:33.069Z,13.09
2022-08-06T05:01:06.903Z,13.06
2022-08-06T05:04:07.374Z,12.99
2022-08-06T05:06:33.187Z,13.08
2022-08-06T05:09:05.371Z,13.10
2022-08-06T05:11:57.640Z,13.17
2022-08-06T05:14:33.033Z,13.24
2022-08-06T05:17:03.090Z,13.27
2022-08-06T05:19:39.521Z,13.27
2022-08-06T05:22:12.297Z,13.33
2022-08-06T05:25:00.618Z,13.35
2022-08-06T05:27:54.521Z,13.38
2022-08-06T05:30:16.132Z,13.46
2022-08-06T05:32:50.845Z,13.54
2022-08-06T05:35:23.384Z,13.63
2022-08-06T05:38:07.117Z,13.63
2022-08-06T05:40:52.684Z,13.71
2022-08-06T05:43:20.749Z,13.74
2022-08-06T05:45:49.128Z,13.75
2022-08-06T05:48:29.142Z,13.77
2022-08-06T05:51:08.101Z,13.84
2022-08-06T05:54:02.577Z,13.83
2022-08-06T05:56:38.512Z,13.96
2022-08-06T05:59:37.389Z,14.03
2022-08-06T06:02:07.169Z,14.12
2022-08-06T06:04:34.179Z,14.21
2022-08-06T06:07:04.696Z,14.26
2022-08-06T06:09:57.126Z,14.38
2022-08-06T06:12:21.377Z,14.43
2022-08-06T06:14:58.518Z,14.56
2022-08-06T06:17:51.072Z,14.66
2022-08-06T06:21:04.013Z,14.70
2022-08-06T06:23:39.846Z,14.85
2022-08-06T06:26:33.454Z,14.93
2022-08-06T06:30:01.957Z,15.01
2022-08-06T06:32:31.039Z,15.18
2022-08-06T06:35:13.407Z,15.26
2022-08-06T06:37:51.986Z,15.26
2022-08-06T06:40:24.550Z,15.39
2022-08-06T06:43:17.900Z,15.44
2022-08-06T06:46:10.033Z,15.58
2022-08-06T06:49:02.895Z,15.66
2022-08-06T06:51:56.527Z,15.75
2022-08-06T06:54:35.659Z,15.88
2022-08-06T06:57:08.975Z,16.02
2022-08-06T07:00:04.484Z,16.11
2022-08-06T07:02:29.419Z,16.29
2022-08-06T07:04:59.616Z,16.34
2022-08-06T07:07:27.825Z,16.53
2022-08-06T07:10:00.141Z,16.49
2022-08-06T07:12:34.111Z,16.55
2022-08-06T07:15:02.641Z,16.59
2022-08-06T07:17:43.831Z,16.80
2022-08-06T07:20:17.329Z,16.85
2022-08-06T07:24:08.128Z,16.85
2022-08-06T07:25:39.911Z,16.89
2022-08-06T07:28:10.933Z,16.97
2022-08-06T07:30:41.282Z,17.21
2022-08-06T07:33:11.404Z,17.20
2022-08-06T07:35:42.550Z,17.11
2022-08-06T07:38:11.340Z,17.07
2022-08-06T07:40:52.881Z,17.17
2022-08-06T07:43:25.336Z,17.20
2022-08-06T07:46:02.077Z,17.16
2022-08-06T07:48:52.534Z,17.48
2022-08-06T07:51:34.283Z,17.55
2022-08-06T07:54:09.340Z,17.62
2022-08-06T07:57:01.642Z,17.83
2022-08-06T07:59:30.498Z,17.96
2022-08-06T08:01:58.739Z,18.00
2022-08-06T08:04:35.153Z,18.19
2022-08-06T08:07:07.646Z,18.29
2022-08-06T08:10:01.926Z,18.58
2022-08-06T08:12:34.789Z,18.89
2022-08-06T08:15:04.102Z,19.19
2022-08-06T08:17:35.002Z,19.90
2022-08-06T08:20:15.494Z,20.42
2022-08-06T08:22:48.631Z,20.37
2022-08-06T08:25:40.435Z,20.41
2022-08-06T08:28:11.863Z,20.69
2022-08-06T08:30:43.427Z,20.69
2022-08-06T08:33:11.090Z,20.68
2022-08-06T08:35:50.054Z,20.78
2022-08-06T08:38:29.470Z,20.53
2022-08-06T08:40:57.251Z,20.81
2022-08-06T08:43:33.284Z,21.03
2022-08-06T08:46:17.294Z,20.88
2022-08-06T08:49:01.235Z,20.74
2022-08-06T08:51:28.168Z,20.58
2022-08-06T08:53:58.320Z,20.33
2022-08-06T08:57:08.501Z,20.17
2022-08-06T08:59:57.793Z,20.01
2022-08-06T09:02:00.648Z,19.92
2022-08-06T09:04:28.145Z,20.03
2022-08-06T09:06:56.391Z,19.86
2022-08-06T09:09:30.158Z,20.03
2022-08-06T09:12:03.142Z,20.17
2022-08-06T09:14:34.210Z,20.71
2022-08-06T09:17:01.973Z,21.05
2022-08-06T09:19:37.826Z,21.45
2022-08-06T09:22:09.171Z,21.94
2022-08-06T09:24:39.174Z,21.81
2022-08-06T09:27:32.575Z,21.62
2022-08-06T09:30:03.777Z,21.65
2022-08-06T09:32:54.914Z,22.38
2022-08-06T09:35:44.272Z,22.67
2022-08-06T09:38:16.346Z,22.88
2022-08-06T09:41:03.317Z,23.05
2022-08-06T09:43:34.396Z,22.92
2022-08-06T09:46:48.558Z,22.39
2022-08-06T09:49:45.764Z,22.63
2022-08-06T09:52:17.879Z,23.49
2022-08-06T09:54:46.404Z,24.06
2022-08-06T09:57:13.043Z,24.49
2022-08-06T09:59:50.046Z,24.95
2022-08-06T10:02:24.109Z,25.88
2022-08-06T10:05:19.237Z,26.08
2022-08-06T10:07:46.802Z,26.16
2022-08-06T10:10:13.744Z,26.62
2022-08-06T10:13:12.085Z,26.93
2022-08-06T10:15:57.622Z,26.95
2022-08-06T10:18:55.016Z,26.74
2022-08-06T10:21:33.330Z,26.66
2022-08-06T10:24:08.290Z,27.07
2022-08-06T10:26:35.213Z,27.13
2022-08-06T10:29:05.321Z,26.36
2022-08-06T10:31:33.791Z,26.03
2022-08-06T10:34:29.670Z,25.87
2022-08-06T10:37:10.648Z,26.12
2022-08-06T10:40:09.925Z,26.29
2022-08-06T10:42:40.157Z,25.89
2022-08-06T10:45:12.916Z,25.65
2022-08-06T10:48:58.494Z,25.49
2022-08-06T10:50:44.624Z,24.90
2022-08-06T10:54:00.076Z,24.47
2022-08-06T10:56:08.944Z,24.03
2022-08-06T10:58:37.357Z,23.73
2022-08-06T11:01:09.508Z,23.59
2022-08-06T11:04:04.178Z,23.43
2022-08-06T11:06:57.691Z,23.41
2022-08-06T11:10:00.235Z,23.29
2022-08-06T11:12:56.403Z,23.33
2022-08-06T11:15:23.657Z,23.40
2022-08-06T11:17:52.516Z,23.24
2022-08-06T11:20:35.000Z,23.25
2022-08-06T11:23:26.279Z,23.15
2022-08-06T11:26:08.832Z,23.19
2022-08-06T11:28:35.373Z,23.07
2022-08-06T11:31:04.847Z,23.10
2022-08-06T11:33:34.038Z,23.32
2022-08-06T11:36:09.737Z,23.34
2022-08-06T11:38:50.844Z,23.32
2022-08-06T11:41:50.862Z,23.29
2022-08-06T11:44:17.068Z,23.20
2022-08-06T11:46:48.532Z,23.12
2022-08-06T11:49:43.838Z,23.18
2022-08-06T11:52:39.577Z,23.25
2022-08-06T11:55:12.346Z,23.10
2022-08-06T11:57:49.419Z,22.92
2022-08-06T12:00:22.241Z,22.75
2022-08-06T12:02:54.422Z,23.33
2022-08-06T12:05:23.411Z,23.28
2022-08-06T12:08:38.838Z,22.96
2022-08-06T12:11:23.804Z,22.94
2022-08-06T12:13:57.605Z,23.09
2022-08-06T12:16:39.509Z,23.03
2022-08-06T12:19:13.518Z,23.10
2022-08-06T12:21:46.101Z,23.03
2022-08-06T12:24:15.906Z,23.03
2022-08-06T12:26:43.422Z,23.01
2022-08-06T12:29:09.958Z,22.97
2022-08-06T12:31:44.222Z,22.82
2022-08-06T12:34:31.465Z,22.79
2022-08-06T12:36:59.091Z,23.05
2022-08-06T12:39:43.319Z,23.26
2022-08-06T12:42:53.224Z,23.18
2022-08-06T12:45:33.049Z,23.18
2022-08-06T12:48:05.128Z,23.18
2022-08-06T12:50:40.785Z,23.25
2022-08-06T12:53:11.537Z,23.39
2022-08-06T12:55:45.010Z,23.52
2022-08-06T12:58:41.518Z,23.53
2022-08-06T13:01:01.800Z,23.69
2022-08-06T13:03:30.376Z,23.85
2022-08-06T13:06:00.344Z,23.86
2022-08-06T13:08:28.630Z,23.74
2022-08-06T13:10:57.635Z,23.82
2022-08-06T13:14:14.411Z,23.96
2022-08-06T13:16:55.080Z,23.93
2022-08-06T13:19:32.971Z,23.89
2022-08-06T13:22:06.431Z,23.87
2022-08-06T13:24:34.412Z,23.85
2022-08-06T13:27:02.855Z,24.02
2022-08-06T13:30:35.630Z,24.09
2022-08-06T13:32:33.127Z,23.88
2022-08-06T13:35:05.421Z,24.04
2022-08-06T13:38:15.220Z,23.93
2022-08-06T13:40:51.546Z,23.78
2022-08-06T13:43:42.673Z,23.82
2022-08-06T13:46:20.300Z,23.75
2022-08-06T13:48:55.275Z,23.75
2022-08-06T13:51:27.795Z,23.70
2022-08-06T13:53:57.553Z,23.69
2022-08-06T13:56:29.146Z,23.81
2022-08-06T13:58:57.606Z,23.69
2022-08-06T14:01:24.245Z,23.44
2022-08-06T14:04:01.933Z,23.45
2022-08-06T14:06:28.908Z,23.69
2022-08-06T14:08:55.345Z,23.65
2022-08-06T14:11:25.742Z,23.60
2022-08-06T14:13:54.821Z,24.04
2022-08-06T14:16:21.478Z,23.90
2022-08-06T14:19:03.469Z,23.97
2022-08-06T14:21:34.622Z,23.87
2022-08-06T14:24:06.707Z,23.83
2022-08-06T14:26:33.531Z,23.91
2022-08-06T14:30:25.678Z,23.94
2022-08-06T14:31:53.507Z,23.72
2022-08-06T14:34:30.028Z,23.76
2022-08-06T14:37:03.390Z,23.81
2022-08-06T14:39:58.270Z,23.87
2022-08-06T14:42:16.791Z,23.91
2022-08-06T14:44:45.951Z,23.82
2022-08-06T14:47:19.941Z,23.82
2022-08-06T14:49:59.146Z,24.01
2022-08-06T14:52:26.160Z,23.96
2022-08-06T14:54:56.134Z,23.85
2022-08-06T14:58:03.948Z,23.54
2022-08-06T15:00:21.445Z,23.37
2022-08-06T15:02:48.399Z,23.39
2022-08-06T15:05:40.779Z,23.75
2022-08-06T15:08:03.042Z,24.22
2022-08-06T15:10:29.935Z,24.01
2022-08-06T15:13:01.592Z,23.93
2022-08-06T15:15:46.419Z,24.09
2022-08-06T15:18:34.901Z,24.20
2022-08-06T15:21:02.182Z,24.12
2022-08-06T15:23:31.117Z,24.09
2022-08-06T15:26:42.199Z,24.18
2022-08-06T15:28:58.247Z,24.41
2022-08-06T15:31:26.321Z,24.44
2022-08-06T15:33:57.090Z,24.34
2022-08-06T15:36:23.881Z,24.36
2022-08-06T15:38:56.724Z,24.28
2022-08-06T15:41:24.345Z,24.22
2022-08-06T15:43:52.482Z,24.10
2022-08-06T15:46:28.215Z,24.03
2022-08-06T15:48:55.984Z,23.94
2022-08-06T15:51:30.167Z,23.79
2022-08-06T15:53:58.803Z,23.65
2022-08-06T15:56:38.672Z,23.61
2022-08-06T15:59:15.208Z,23.62
2022-08-06T16:01:52.512Z,23.59
2022-08-06T16:04:35.340Z,23.61
2022-08-06T16:07:04.561Z,23.68
2022-08-06T16:10:00.858Z,23.60
2022-08-06T16:12:19.980Z,23.44
2022-08-06T16:14:57.400Z,23.36
2022-08-06T16:17:53.258Z,23.34
2022-08-06T16:20:20.479Z,23.36
2022-08-06T16:22:49.128Z,23.36
2022-08-06T16:25:15.543Z,23.39
2022-08-06T16:27:43.102Z,23.36
2022-08-06T16:30:10.659Z,23.36
2022-08-06T16:32:37.505Z,23.37
2022-08-06T16:35:04.143Z,23.37
2022-08-06T16:37:39.803Z,23.24
2022-08-06T16:40:09.001Z,23.16
2022-08-06T16:42:36.880Z,23.12
2022-08-06T16:45:09.874Z,23.06
2022-08-06T16:48:20.808Z,23.01
2022-08-06T16:50:26.689Z,23.01
2022-08-06T16:54:08.229Z,22.82
2022-08-06T16:55:42.761Z,22.63
2022-08-06T16:58:16.866Z,22.62
2022-08-06T17:01:00.364Z,22.56
2022-08-06T17:03:46.271Z,22.54
2022-08-06T17:06:17.673Z,22.49
2022-08-06T17:08:52.804Z,22.51
2022-08-06T17:11:46.662Z,22.55
2022-08-06T17:14:13.214Z,22.59
2022-08-06T17:16:40.955Z,22.61
2022-08-06T17:21:59.559Z,22.66
2022-08-06T17:24:33.114Z,22.66
2022-08-06T17:29:52.666Z,22.60
2022-08-06T17:32:32.838Z,22.72
2022-08-06T17:35:10.561Z,22.73
2022-08-06T17:37:43.371Z,22.67
2022-08-06T17:43:13.111Z,22.66
2022-08-06T17:45:52.596Z,22.63
2022-08-06T17:48:27.553Z,22.59
2022-08-06T17:50:57.637Z,22.50
2022-08-06T17:53:24.272Z,22.55
2022-08-06T17:56:11.062Z,22.58
2022-08-06T17:58:52.914Z,22.60
2022-08-06T18:01:44.265Z,22.56
2022-08-06T18:04:21.282Z,22.48
2022-08-06T18:06:49.763Z,22.40
2022-08-06T18:10:12.111Z,22.34
2022-08-06T18:12:04.290Z,22.24
2022-08-06T18:14:32.526Z,22.11
2022-08-06T18:17:00.104Z,22.00
2022-08-06T18:19:34.257Z,21.93
2022-08-06T18:22:12.020Z,21.85
2022-08-06T18:24:50.729Z,21.78
2022-08-06T18:27:55.186Z,21.68
2022-08-06T18:30:05.184Z,21.61
2022-08-06T18:32:32.724Z,21.56
2022-08-06T18:35:04.395Z,21.50
2022-08-06T18:38:01.297Z,21.42
2022-08-06T18:40:39.392Z,21.30
2022-08-06T18:43:06.203Z,21.19
2022-08-06T18:45:36.692Z,21.13
2022-08-06T18:48:05.313Z,21.10
2022-08-06T18:50:33.275Z,20.99
2022-08-06T18:52:59.975Z,20.95
2022-08-06T18:55:53.998Z,20.83
2022-08-06T18:58:16.732Z,20.74
2022-08-06T19:00:52.726Z,20.66
2022-08-06T19:03:19.587Z,20.56
2022-08-06T19:05:51.472Z,20.49
2022-08-06T19:08:29.769Z,20.39
2022-08-06T19:10:57.211Z,20.31
2022-08-06T19:13:24.188Z,20.18
2022-08-06T19:16:10.638Z,20.06
2022-08-06T19:18:37.172Z,19.89
2022-08-06T19:21:16.738Z,19.85
2022-08-06T19:24:02.310Z,19.73
2022-08-06T19:26:30.306Z,19.71
2022-08-06T19:28:57.079Z,19.62
2022-08-06T19:31:42.713Z,19.53
2022-08-06T19:34:11.141Z,19.48
2022-08-06T19:36:41.575Z,19.40
2022-08-06T19:39:53.950Z,19.34
2022-08-06T19:42:01.264Z,19.27
2022-08-06T19:44:35.912Z,19.17
2022-08-06T19:47:06.141Z,19.09
2022-08-06T19:49:42.311Z,19.03
2022-08-06T19:52:09.294Z,18.95
2022-08-06T19:54:37.175Z,18.93
2022-08-06T19:57:09.316Z,18.95
2022-08-06T20:00:52.916Z,18.89
2022-08-06T20:02:29.101Z,18.80
2022-08-06T20:04:56.504Z,18.75
2022-08-06T20:07:25.682Z,18.69
2022-08-06T20:10:00.421Z,18.56
2022-08-06T20:12:34.764Z,18.53
2022-08-06T20:15:06.561Z,18.44
2022-08-06T20:17:45.992Z,18.39
2022-08-06T20:23:14.554Z,18.10
2022-08-06T20:26:34.125Z,18.06
2022-08-06T20:29:09.988Z,17.98
2022-08-06T20:31:21.865Z,17.88
2022-08-06T20:33:58.015Z,17.79
2022-08-06T20:36:28.176Z,17.77
2022-08-06T20:38:54.887Z,17.72
2022-08-06T20:41:58.884Z,17.69
2022-08-06T20:44:08.502Z,17.55
2022-08-06T20:49:48.210Z,17.40
2022-08-06T20:52:17.112Z,17.33
2022-08-06T20:54:51.480Z,17.16
2022-08-06T20:57:19.260Z,17.17
2022-08-06T20:59:50.623Z,17.07
2022-08-06T21:02:25.634Z,17.03
2022-08-06T21:05:14.080Z,17.02
2022-08-06T21:07:56.568Z,16.96
2022-08-06T21:10:25.034Z,16.90
2022-08-06T21:13:01.141Z,16.87
2022-08-06T21:15:54.574Z,16.80
2022-08-06T21:18:21.051Z,16.72
2022-08-06T21:20:50.939Z,16.72
2022-08-06T21:23:21.326Z,16.68
2022-08-06T21:25:53.338Z,16.57
2022-08-06T21:28:25.895Z,16.44
2022-08-06T21:30:53.331Z,16.38
2022-08-06T21:33:20.327Z,16.35
2022-08-06T21:35:50.442Z,16.30
2022-08-06T21:38:24.021Z,16.30
2022-08-06T21:40:52.084Z,16.20
2022-08-06T21:43:21.574Z,16.12
2022-08-06T21:45:50.309Z,16.09
2022-08-06T21:48:31.962Z,16.04
2022-08-06T21:50:59.709Z,16.03
2022-08-06T21:53:52.669Z,15.99
2022-08-06T21:56:39.421Z,15.87
2022-08-06T21:59:01.026Z,15.82
2022-08-06T22:02:09.748Z,15.82
2022-08-06T22:04:39.003Z,15.77
2022-08-06T22:07:01.116Z,15.68
2022-08-06T22:09:38.674Z,15.61
2022-08-06T22:12:40.368Z,15.61
2022-08-06T22:14:58.438Z,15.48
2022-08-06T22:17:59.578Z,15.43
2022-08-06T22:20:21.528Z,15.38
2022-08-06T22:22:53.115Z,15.26
2022-08-06T22:25:20.677Z,15.30
2022-08-06T22:27:54.550Z,15.29
2022-08-06T22:30:24.352Z,15.24
2022-08-06T22:32:51.284Z,15.14
2022-08-06T22:35:17.793Z,15.10
2022-08-06T22:38:16.871Z,14.97
2022-08-06T22:40:41.271Z,14.93
2022-08-06T22:43:17.225Z,14.88
2022-08-06T22:46:00.102Z,14.84
2022-08-06T22:48:36.593Z,14.81
2022-08-06T22:51:10.613Z,14.70
2022-08-06T22:54:30.404Z,14.65
2022-08-06T22:56:28.808Z,14.67
2022-08-06T22:59:18.658Z,14.59
2022-08-06T23:02:03.700Z,14.57
2022-08-06T23:04:30.365Z,14.52
2022-08-06T23:06:57.111Z,14.46
2022-08-06T23:09:23.450Z,14.39
2022-08-06T23:11:59.343Z,14.39
2022-08-06T23:14:27.303Z,14.37
2022-08-06T23:16:58.926Z,14.37
2022-08-06T23:19:25.938Z,14.32
2022-08-06T23:22:04.807Z,14.29
2022-08-06T23:24:36.029Z,14.27
2022-08-06T23:27:07.521Z,14.20
2022-08-06T23:30:09.530Z,14.19
2022-08-06T23:32:31.291Z,14.13
2022-08-06T23:34:58.963Z,14.08
2022-08-06T23:37:26.524Z,14.03
2022-08-06T23:39:58.497Z,13.97
2022-08-06T23:42:42.541Z,13.95
2022-08-06T23:45:10.029Z,13.86
2022-08-06T23:47:52.091Z,13.80
2022-08-06T23:50:26.241Z,13.79
2022-08-06T23:53:06.368Z,13.74
2022-08-06T23:55:37.490Z,13.72
2022-08-06T23:58:22.961Z,13.72
